createdAt,value
2018-04-29T00:00:05.390Z,77.30
2018-04-29T00:02:32.935Z,77.30
2018-04-29T00:05:00.423Z,77.30
2018-04-29T00:07:27.958Z,77.60
2018-04-29T00:09:55.460Z,77.60
2018-04-29T00:12:22.999Z,77.70
2018-04-29T00:14:50.495Z,77.70
2018-04-29T00:17:18.047Z,77.70
2018-04-29T00:19:45.564Z,77.10
2018-04-29T00:22:13.108Z,77.60
2018-04-29T00:24:40.603Z,77.60
2018-04-29T00:27:08.140Z,77.60
2018-04-29T00:29:35.643Z,77.60
2018-04-29T00:32:03.191Z,77.60
2018-04-29T00:34:30.694Z,77.60
2018-04-29T00:36:58.225Z,77.60
2018-04-29T00:39:25.720Z,77.60
2018-04-29T00:41:53.250Z,77.60
2018-04-29T00:44:20.754Z,77.60
2018-04-29T00:46:48.290Z,77.60
2018-04-29T00:49:16.545Z,77.50
2018-04-29T00:51:56.842Z,78.10
2018-04-29T00:54:24.392Z,77.50
2018-04-29T00:56:51.943Z,77.50
2018-04-29T00:59:19.456Z,77.50
2018-04-29T01:01:46.998Z,77.50
2018-04-29T01:04:14.499Z,77.80
2018-04-29T01:06:42.003Z,77.60
2018-04-29T01:09:09.552Z,77.80
2018-04-29T01:11:37.066Z,77.80
2018-04-29T01:14:04.610Z,77.30
2018-04-29T01:16:32.098Z,77.30
2018-04-29T01:19:00.547Z,77.20
2018-04-29T01:21:28.052Z,77.10
2018-04-29T01:23:55.596Z,77.50
2018-04-29T01:26:23.103Z,77.60
2018-04-29T01:28:50.630Z,78.10
2018-04-29T01:31:18.135Z,78.30
2018-04-29T01:33:45.670Z,78.20
2018-04-29T01:36:13.163Z,78.20
2018-04-29T01:38:40.694Z,78.30
2018-04-29T01:41:08.191Z,78.30
2018-04-29T01:43:35.756Z,77.90
2018-04-29T01:46:04.026Z,77.40
2018-04-29T01:48:31.561Z,77.30
2018-04-29T01:50:59.059Z,77.80
2018-04-29T01:53:26.668Z,77.70
2018-04-29T01:55:54.166Z,78.50
2018-04-29T01:58:21.675Z,78.30
2018-04-29T02:00:49.208Z,78.30
2018-04-29T02:03:17.468Z,78.60
2018-04-29T02:05:45.768Z,77.90
2018-04-29T02:08:13.269Z,77.80
2018-04-29T02:10:40.805Z,77.70
2018-04-29T02:13:08.292Z,78.20
2018-04-29T02:15:35.834Z,78.50
2018-04-29T02:18:03.340Z,78.80
2018-04-29T02:20:30.879Z,78.70
2018-04-29T02:22:58.374Z,79.40
2018-04-29T02:25:25.916Z,78.90
2018-04-29T02:27:53.435Z,79.10
2018-04-29T02:30:21.538Z,80.00
2018-04-29T02:32:49.798Z,78.90
2018-04-29T02:35:17.343Z,78.80
2018-04-29T02:37:44.843Z,79.50
2018-04-29T02:40:12.405Z,79.40
2018-04-29T02:42:40.666Z,79.60
2018-04-29T02:45:08.179Z,78.90
2018-04-29T02:47:35.746Z,79.10
2018-04-29T02:50:03.257Z,79.00
2018-04-29T02:52:31.597Z,79.50
2018-04-29T02:54:59.099Z,79.40
2018-04-29T02:57:26.699Z,79.30
2018-04-29T02:59:54.296Z,79.10
2018-04-29T03:02:22.111Z,79.00
2018-04-29T03:04:49.614Z,78.90
2018-04-29T03:07:17.214Z,79.50
2018-04-29T03:09:44.718Z,79.40
2018-04-29T03:12:12.352Z,79.30
2018-04-29T03:14:40.052Z,79.30
2018-04-29T03:17:07.722Z,79.50
2018-04-29T03:19:35.328Z,79.10
2018-04-29T03:22:02.822Z,79.30
2018-04-29T03:24:30.370Z,79.60
2018-04-29T03:26:57.908Z,79.50
2018-04-29T03:29:25.449Z,79.30
2018-04-29T03:31:52.952Z,80.00
2018-04-29T03:34:20.823Z,80.00
2018-04-29T03:36:48.341Z,80.30
2018-04-29T03:39:15.885Z,79.70
2018-04-29T03:41:43.404Z,80.00
2018-04-29T03:44:10.958Z,80.20
2018-04-29T03:46:38.460Z,80.50
2018-04-29T03:49:06.722Z,80.80
2018-04-29T03:51:35.039Z,80.80
2018-04-29T03:54:02.584Z,80.80
2018-04-29T03:56:30.124Z,80.70
2018-04-29T03:59:10.146Z,80.70
2018-04-29T04:01:51.284Z,80.70
2018-04-29T04:04:17.359Z,80.40
2018-04-29T04:06:44.870Z,79.30
2018-04-29T04:09:12.370Z,78.40
2018-04-29T04:11:39.901Z,79.20
2018-04-29T04:14:07.406Z,79.20
2018-04-29T04:16:34.973Z,79.40
2018-04-29T04:19:03.255Z,79.60
2018-04-29T04:21:31.554Z,78.80
2018-04-29T04:23:59.054Z,78.80
2018-04-29T04:26:26.662Z,78.90
2018-04-29T04:28:54.162Z,79.60
2018-04-29T04:31:21.698Z,79.70
2018-04-29T04:33:49.198Z,79.50
2018-04-29T04:36:16.735Z,79.30
2018-04-29T04:38:44.242Z,79.50
2018-04-29T04:41:11.775Z,79.40
2018-04-29T04:43:39.266Z,79.90
2018-04-29T04:46:06.765Z,79.10
2018-04-29T04:48:34.318Z,79.10
2018-04-29T04:51:01.852Z,78.90
2018-04-29T04:53:29.355Z,78.20
2018-04-29T04:55:56.893Z,77.80
2018-04-29T04:58:24.385Z,77.70
2018-04-29T05:00:51.924Z,77.70
2018-04-29T05:03:19.430Z,77.70
2018-04-29T05:05:46.967Z,77.80
2018-04-29T05:08:14.475Z,77.50
2018-04-29T05:10:42.043Z,77.10
2018-04-29T05:13:09.558Z,77.00
2018-04-29T05:15:37.877Z,76.50
2018-04-29T05:18:05.400Z,76.40
2018-04-29T05:20:33.005Z,76.50
2018-04-29T05:23:00.528Z,76.20
2018-04-29T05:25:28.123Z,76.20
2018-04-29T05:27:55.764Z,75.50
2018-04-29T05:30:23.302Z,75.50
2018-04-29T05:32:52.775Z,74.30
2018-04-29T05:35:20.420Z,74.20
2018-04-29T05:37:47.938Z,74.60
2018-04-29T05:40:15.474Z,74.00
2018-04-29T05:42:43.740Z,74.40
2018-04-29T05:45:12.049Z,75.00
2018-04-29T05:47:39.549Z,74.30
2018-04-29T05:50:07.078Z,74.50
2018-04-29T05:52:34.576Z,74.50
2018-04-29T05:55:02.118Z,74.40
2018-04-29T05:57:29.617Z,74.20
2018-04-29T05:59:58.237Z,74.60
2018-04-29T06:02:25.729Z,74.20
2018-04-29T06:04:53.263Z,74.10
2018-04-29T06:07:20.767Z,74.20
2018-04-29T06:09:48.315Z,74.30
2018-04-29T06:12:15.830Z,74.40
2018-04-29T06:14:43.358Z,74.40
2018-04-29T06:17:11.622Z,74.50
2018-04-29T06:19:39.933Z,74.50
2018-04-29T06:22:07.447Z,74.40
2018-04-29T06:24:35.158Z,74.00
2018-04-29T06:27:02.658Z,74.10
2018-04-29T06:29:30.166Z,73.60
2018-04-29T06:31:57.707Z,73.40
2018-04-29T06:34:25.221Z,73.20
2018-04-29T06:36:52.788Z,72.90
2018-04-29T06:39:20.299Z,72.60
2018-04-29T06:41:47.845Z,72.30
2018-04-29T06:44:16.106Z,71.60
2018-04-29T06:46:44.477Z,71.40
2018-04-29T06:49:11.941Z,71.30
2018-04-29T06:51:39.492Z,71.00
2018-04-29T06:54:07.005Z,71.10
2018-04-29T06:56:34.626Z,71.00
2018-04-29T06:59:02.897Z,70.70
2018-04-29T07:01:31.316Z,70.10
2018-04-29T07:03:58.876Z,70.00
2018-04-29T07:06:26.390Z,70.00
2018-04-29T07:08:53.995Z,69.90
2018-04-29T07:11:22.120Z,69.60
2018-04-29T07:13:50.447Z,68.90
2018-04-29T07:16:18.030Z,68.90
2018-04-29T07:18:45.582Z,68.90
2018-04-29T07:21:13.140Z,68.60
2018-04-29T07:23:40.683Z,68.50
2018-04-29T07:26:08.277Z,68.30
2018-04-29T07:28:35.823Z,67.60
2018-04-29T07:31:03.304Z,67.40
2018-04-29T07:33:30.854Z,67.50
2018-04-29T07:35:58.393Z,67.60
2018-04-29T07:38:25.920Z,67.60
2018-04-29T07:40:54.187Z,66.80
2018-04-29T07:43:22.490Z,67.00
2018-04-29T07:45:50.006Z,67.00
2018-04-29T07:48:17.713Z,66.50
2018-04-29T07:50:45.973Z,65.50
2018-04-29T07:53:13.470Z,65.30
2018-04-29T07:55:41.000Z,65.20
2018-04-29T07:58:08.520Z,64.70
2018-04-29T08:00:36.062Z,64.80
2018-04-29T08:03:03.598Z,64.90
2018-04-29T08:05:31.144Z,64.40
2018-04-29T08:07:58.680Z,63.60
2018-04-29T08:10:26.229Z,63.80
2018-04-29T08:12:53.731Z,64.00
2018-04-29T08:15:21.332Z,63.40
2018-04-29T08:17:48.831Z,62.10
2018-04-29T08:20:16.387Z,62.70
2018-04-29T08:22:43.953Z,62.30
2018-04-29T08:25:11.482Z,62.50
2018-04-29T08:27:39.755Z,62.50
2018-04-29T08:30:08.166Z,62.60
2018-04-29T08:32:35.699Z,62.60
2018-04-29T08:35:04.040Z,62.80
2018-04-29T08:37:31.542Z,62.80
2018-04-29T08:39:59.043Z,62.90
2018-04-29T08:42:26.595Z,62.70
2018-04-29T08:44:54.107Z,62.40
2018-04-29T08:47:21.648Z,62.50
2018-04-29T08:49:49.169Z,62.30
2018-04-29T08:52:17.031Z,62.00
2018-04-29T08:54:44.582Z,61.80
2018-04-29T08:57:12.167Z,61.90
2018-04-29T08:59:39.727Z,61.40
2018-04-29T09:02:07.301Z,61.10
2018-04-29T09:04:34.803Z,61.50
2018-04-29T09:07:02.349Z,61.90
2018-04-29T09:09:30.660Z,62.30
2018-04-29T09:11:58.209Z,62.30
2018-04-29T09:14:25.757Z,62.60
2018-04-29T09:16:54.099Z,62.20
2018-04-29T09:19:21.586Z,62.10
2018-04-29T09:21:49.133Z,62.00
2018-04-29T09:24:17.423Z,61.70
2018-04-29T09:26:45.723Z,60.80
2018-04-29T09:29:13.238Z,60.80
2018-04-29T09:31:42.371Z,60.50
2018-04-29T09:34:09.881Z,60.50
2018-04-29T09:36:37.402Z,60.50
2018-04-29T09:39:05.818Z,60.50
2018-04-29T09:41:33.327Z,60.50
2018-04-29T09:44:01.794Z,60.60
2018-04-29T09:46:29.290Z,60.60
2018-04-29T09:48:57.170Z,60.80
2018-04-29T09:51:24.705Z,60.90
2018-04-29T09:53:53.184Z,61.00
2018-04-29T09:56:20.724Z,61.00
2018-04-29T09:58:48.348Z,60.80
2018-04-29T10:01:17.694Z,60.90
2018-04-29T10:03:47.758Z,60.20
2018-04-29T10:06:15.326Z,60.20
2018-04-29T10:08:43.854Z,60.00
2018-04-29T10:11:11.379Z,60.20
2018-04-29T10:13:39.726Z,60.20
2018-04-29T10:16:07.270Z,60.20
2018-04-29T10:18:34.856Z,60.00
2018-04-29T10:21:03.071Z,60.50
2018-04-29T10:23:31.340Z,60.30
2018-04-29T10:25:59.726Z,60.60
2018-04-29T10:28:27.290Z,60.50
2018-04-29T10:30:56.072Z,60.40
2018-04-29T10:33:24.191Z,60.30
2018-04-29T10:35:52.499Z,60.50
2018-04-29T10:38:19.959Z,60.80
2018-04-29T10:40:47.514Z,60.30
2018-04-29T10:43:15.042Z,60.60
2018-04-29T10:45:42.581Z,61.30
2018-04-29T10:48:10.094Z,60.50
2018-04-29T10:50:37.722Z,60.30
2018-04-29T10:53:05.947Z,60.60
2018-04-29T10:55:33.480Z,60.40
2018-04-29T10:58:00.979Z,59.80
2018-04-29T11:00:28.551Z,60.30
2018-04-29T11:02:56.931Z,60.60
2018-04-29T11:05:24.475Z,60.50
2018-04-29T11:07:51.977Z,60.30
2018-04-29T11:10:19.525Z,60.80
2018-04-29T11:12:47.040Z,61.10
2018-04-29T11:15:14.596Z,60.50
2018-04-29T11:17:42.916Z,60.10
2018-04-29T11:20:10.439Z,60.10
2018-04-29T11:22:38.003Z,60.40
2018-04-29T11:25:05.508Z,60.20
2018-04-29T11:27:33.043Z,60.00
2018-04-29T11:30:00.538Z,60.20
2018-04-29T11:32:28.079Z,59.30
2018-04-29T11:34:55.586Z,60.10
2018-04-29T11:37:23.130Z,59.70
2018-04-29T11:39:50.643Z,60.00
2018-04-29T11:42:18.188Z,60.30
2018-04-29T11:44:45.698Z,60.50
2018-04-29T11:47:13.260Z,61.00
2018-04-29T11:49:40.775Z,61.00
2018-04-29T11:52:08.325Z,61.00
2018-04-29T11:54:35.818Z,60.90
2018-04-29T11:57:03.539Z,60.90
2018-04-29T11:59:31.042Z,60.90
2018-04-29T12:01:58.582Z,60.90
2018-04-29T12:04:26.109Z,60.80
2018-04-29T12:06:53.612Z,60.80
2018-04-29T12:09:21.151Z,60.80
2018-04-29T12:11:48.646Z,60.70
2018-04-29T12:14:16.195Z,60.80
2018-04-29T12:16:43.694Z,60.70
2018-04-29T12:19:12.004Z,61.10
2018-04-29T12:21:39.559Z,61.10
2018-04-29T12:24:10.089Z,61.30
2018-04-29T12:26:37.623Z,61.70
2018-04-29T12:29:05.184Z,62.40
2018-04-29T12:31:32.703Z,62.40
2018-04-29T12:34:00.257Z,62.10
2018-04-29T12:36:27.852Z,62.40
2018-04-29T12:38:55.468Z,62.60
2018-04-29T12:41:22.983Z,62.70
2018-04-29T12:43:50.503Z,62.90
2018-04-29T12:46:18.118Z,62.90
2018-04-29T12:48:45.618Z,63.00
2018-04-29T12:51:13.307Z,63.00
2018-04-29T12:53:41.801Z,63.00
2018-04-29T12:56:09.425Z,63.00
2018-04-29T12:58:36.966Z,63.20
2018-04-29T13:01:04.522Z,62.90
2018-04-29T13:03:32.032Z,62.50
2018-04-29T13:05:59.608Z,62.20
2018-04-29T13:08:27.115Z,61.90
2018-04-29T13:10:54.664Z,60.90
2018-04-29T13:13:22.174Z,59.30
2018-04-29T13:15:49.707Z,58.80
2018-04-29T13:18:17.241Z,56.60
2018-04-29T13:20:44.742Z,54.60
2018-04-29T13:23:13.057Z,53.70
2018-04-29T13:25:40.559Z,53.70
2018-04-29T13:28:08.126Z,53.80
2018-04-29T13:30:36.433Z,51.80
2018-04-29T13:33:03.972Z,51.80
2018-04-29T13:35:31.459Z,49.40
2018-04-29T13:37:59.776Z,50.20
2018-04-29T13:40:27.284Z,48.60
2018-04-29T13:42:54.833Z,48.70
2018-04-29T13:45:22.363Z,47.40
2018-04-29T13:47:49.917Z,46.70
2018-04-29T13:50:17.477Z,45.60
2018-04-29T13:52:45.067Z,44.00
2018-04-29T13:55:12.615Z,44.60
2018-04-29T13:57:40.890Z,43.40
2018-04-29T14:00:09.219Z,42.40
2018-04-29T14:02:36.732Z,42.50
2018-04-29T14:05:04.263Z,40.40
2018-04-29T14:07:31.765Z,39.50
2018-04-29T14:09:59.306Z,38.70
2018-04-29T14:12:28.503Z,41.00
2018-04-29T14:14:56.810Z,42.40
2018-04-29T14:17:24.315Z,42.40
2018-04-29T14:19:52.080Z,42.90
2018-04-29T14:22:19.562Z,44.00
2018-04-29T14:24:47.901Z,46.20
2018-04-29T14:27:15.411Z,46.10
2018-04-29T14:29:42.956Z,47.00
2018-04-29T14:32:11.225Z,49.40
2018-04-29T14:34:39.570Z,51.30
2018-04-29T14:37:07.078Z,50.90
2018-04-29T14:39:34.743Z,51.50
2018-04-29T14:42:02.255Z,52.30
2018-04-29T14:44:29.881Z,52.10
2018-04-29T14:46:57.437Z,52.40
2018-04-29T14:49:25.008Z,53.70
2018-04-29T14:51:52.520Z,53.90
2018-04-29T14:54:20.830Z,55.30
2018-04-29T14:56:48.378Z,55.30
2018-04-29T14:59:15.958Z,55.80
2018-04-29T15:01:43.601Z,55.90
2018-04-29T15:04:11.113Z,56.00
2018-04-29T15:06:38.743Z,56.00
2018-04-29T15:09:06.316Z,56.20
2018-04-29T15:11:33.852Z,55.40
2018-04-29T15:14:01.355Z,55.00
2018-04-29T15:16:28.857Z,53.20
2018-04-29T15:18:59.309Z,53.00
2018-04-29T15:21:26.811Z,52.70
2018-04-29T15:23:54.371Z,52.70
2018-04-29T15:26:21.876Z,52.80
2018-04-29T15:28:49.545Z,52.90
2018-04-29T15:31:17.076Z,52.80
2018-04-29T15:33:44.620Z,52.60
2018-04-29T15:36:12.904Z,52.40
2018-04-29T15:38:41.225Z,49.60
2018-04-29T15:41:08.720Z,49.50
2018-04-29T15:43:36.257Z,47.30
2018-04-29T15:46:03.762Z,44.90
2018-04-29T15:48:32.071Z,44.60
2018-04-29T15:50:59.590Z,43.70
2018-04-29T15:53:27.139Z,41.90
2018-04-29T15:55:54.674Z,40.00
2018-04-29T15:58:22.174Z,40.40
2018-04-29T16:00:50.477Z,38.40
2018-04-29T16:03:18.033Z,38.40
2018-04-29T16:05:45.578Z,37.50
2018-04-29T16:08:13.102Z,37.00
2018-04-29T16:10:40.681Z,38.30
2018-04-29T16:13:08.205Z,41.90
2018-04-29T16:15:35.734Z,42.10
2018-04-29T16:18:03.237Z,44.70
2018-04-29T16:20:30.783Z,46.60
2018-04-29T16:22:58.301Z,48.60
2018-04-29T16:25:25.856Z,50.70
2018-04-29T16:27:55.211Z,52.10
2018-04-29T16:30:22.711Z,51.90
2018-04-29T16:32:50.242Z,53.80
2018-04-29T16:35:18.525Z,56.20
2018-04-29T16:37:46.107Z,56.10
2018-04-29T16:40:13.608Z,57.00
2018-04-29T16:42:41.173Z,57.60
2018-04-29T16:45:08.694Z,58.10
2018-04-29T16:47:36.252Z,58.60
2018-04-29T16:50:03.825Z,59.10
2018-04-29T16:52:31.369Z,59.30
2018-04-29T16:54:58.871Z,59.80
2018-04-29T16:57:26.424Z,60.10
2018-04-29T16:59:53.919Z,60.30
2018-04-29T17:02:21.467Z,60.80
2018-04-29T17:04:49.745Z,61.20
2018-04-29T17:07:17.283Z,61.20
2018-04-29T17:09:44.790Z,61.70
2018-04-29T17:12:12.335Z,62.40
2018-04-29T17:14:40.595Z,62.30
2018-04-29T17:17:08.173Z,62.20
2018-04-29T17:19:35.714Z,62.20
2018-04-29T17:22:03.230Z,62.20
2018-04-29T17:24:30.799Z,62.60
2018-04-29T17:26:58.299Z,63.00
2018-04-29T17:29:26.645Z,63.30
2018-04-29T17:31:54.115Z,63.30
2018-04-29T17:34:21.656Z,63.60
2018-04-29T17:36:49.183Z,63.40
2018-04-29T17:39:16.762Z,63.70
2018-04-29T17:41:44.262Z,63.70
2018-04-29T17:44:11.890Z,63.90
2018-04-29T17:46:39.340Z,64.00
2018-04-29T17:49:10.674Z,64.40
2018-04-29T17:51:38.230Z,64.40
2018-04-29T17:54:05.784Z,64.60
2018-04-29T17:56:33.297Z,64.50
2018-04-29T17:59:00.857Z,64.80
2018-04-29T18:01:28.426Z,64.90
2018-04-29T18:03:56.251Z,64.90
2018-04-29T18:06:23.758Z,64.80
2018-04-29T18:08:52.040Z,65.50
2018-04-29T18:11:20.354Z,65.80
2018-04-29T18:13:47.881Z,65.70
2018-04-29T18:16:15.447Z,65.70
2018-04-29T18:18:43.663Z,65.70
2018-04-29T18:21:11.327Z,65.70
2018-04-29T18:23:39.549Z,66.20
2018-04-29T18:26:07.124Z,66.20
2018-04-29T18:28:34.659Z,66.40
2018-04-29T18:31:02.221Z,66.60
2018-04-29T18:33:30.544Z,66.60
2018-04-29T18:35:58.091Z,66.60
2018-04-29T18:38:25.590Z,66.90
2018-04-29T18:40:53.123Z,67.30
2018-04-29T18:43:20.799Z,67.50
2018-04-29T18:45:48.359Z,66.90
2018-04-29T18:48:15.875Z,66.90
2018-04-29T18:50:43.564Z,67.00
2018-04-29T18:53:10.965Z,67.20
2018-04-29T18:55:39.272Z,67.60
2018-04-29T18:58:06.780Z,67.60
2018-04-29T19:00:34.296Z,67.80
2018-04-29T19:03:01.864Z,68.00
2018-04-29T19:05:41.204Z,68.30
2018-04-29T19:08:08.776Z,68.20
2018-04-29T19:10:36.283Z,68.50
2018-04-29T19:13:04.590Z,68.20
2018-04-29T19:15:32.126Z,68.20
2018-04-29T19:17:59.674Z,68.70
2018-04-29T19:20:27.960Z,69.20
2018-04-29T19:22:56.272Z,69.20
2018-04-29T19:25:23.792Z,69.20
2018-04-29T19:27:51.331Z,68.70
2018-04-29T19:30:18.874Z,68.60
2018-04-29T19:32:47.243Z,69.10
2018-04-29T19:35:14.764Z,69.20
2018-04-29T19:37:42.331Z,69.10
2018-04-29T19:40:09.872Z,69.10
2018-04-29T19:42:38.243Z,69.10
2018-04-29T19:45:05.748Z,69.10
2018-04-29T19:47:33.254Z,69.10
2018-04-29T19:50:01.583Z,69.10
2018-04-29T19:52:29.091Z,69.10
2018-04-29T19:54:56.679Z,68.90
2018-04-29T19:57:24.207Z,69.10
2018-04-29T19:59:51.771Z,69.10
2018-04-29T20:02:20.055Z,69.10
2018-04-29T20:04:48.412Z,69.10
2018-04-29T20:07:15.946Z,69.00
2018-04-29T20:09:43.493Z,69.00
2018-04-29T20:12:11.005Z,69.00
2018-04-29T20:14:38.557Z,69.60
2018-04-29T20:17:06.833Z,69.00
2018-04-29T20:19:35.192Z,68.90
2018-04-29T20:22:02.752Z,68.90
2018-04-29T20:24:30.367Z,68.90
2018-04-29T20:26:58.004Z,68.90
2018-04-29T20:29:25.520Z,68.90
2018-04-29T20:31:53.221Z,69.40
2018-04-29T20:34:20.778Z,68.90
2018-04-29T20:36:48.414Z,68.90
2018-04-29T20:39:17.099Z,69.50
2018-04-29T20:41:44.695Z,69.50
2018-04-29T20:44:12.977Z,69.70
2018-04-29T20:46:41.429Z,70.00
2018-04-29T20:49:09.019Z,69.90
2018-04-29T20:51:36.642Z,69.80
2018-04-29T20:54:04.182Z,69.70
2018-04-29T20:56:31.726Z,69.70
2018-04-29T20:58:59.317Z,69.60
2018-04-29T21:01:26.872Z,70.10
2018-04-29T21:03:56.591Z,69.80
2018-04-29T21:06:25.654Z,70.60
2018-04-29T21:08:53.162Z,70.00
2018-04-29T21:11:21.594Z,70.20
2018-04-29T21:13:49.153Z,70.20
2018-04-29T21:16:16.665Z,70.30
2018-04-29T21:18:46.250Z,70.50
2018-04-29T21:21:13.975Z,70.50
2018-04-29T21:23:41.509Z,70.40
2018-04-29T21:26:09.030Z,70.70
2018-04-29T21:28:36.598Z,70.80
2018-04-29T21:31:04.122Z,71.20
2018-04-29T21:33:31.674Z,71.30
2018-04-29T21:35:59.172Z,71.40
2018-04-29T21:38:26.740Z,71.30
2018-04-29T21:40:54.262Z,71.50
2018-04-29T21:43:21.799Z,71.70
2018-04-29T21:45:53.243Z,71.70
2018-04-29T21:48:21.739Z,71.60
2018-04-29T21:50:49.239Z,72.10
2018-04-29T21:53:16.747Z,72.10
2018-04-29T21:55:45.244Z,72.20
2018-04-29T21:58:12.746Z,72.60
2018-04-29T22:00:41.665Z,72.60
2018-04-29T22:03:09.242Z,72.80
2018-04-29T22:05:36.882Z,72.80
2018-04-29T22:08:06.115Z,72.70
2018-04-29T22:10:33.647Z,72.70
2018-04-29T22:13:03.047Z,72.70
2018-04-29T22:15:30.587Z,72.70
2018-04-29T22:17:58.853Z,73.10
2018-04-29T22:20:26.390Z,73.00
2018-04-29T22:22:53.885Z,73.10
2018-04-29T22:25:21.431Z,73.40
2018-04-29T22:27:49.703Z,73.90
2018-04-29T22:30:17.197Z,73.70
2018-04-29T22:32:44.759Z,73.90
2018-04-29T22:35:12.268Z,73.80
2018-04-29T22:37:39.819Z,74.30
2018-04-29T22:40:07.357Z,73.60
2018-04-29T22:42:34.919Z,74.30
2018-04-29T22:45:02.427Z,74.40
2018-04-29T22:47:29.973Z,74.40
2018-04-29T22:49:57.470Z,74.70
2018-04-29T22:52:25.043Z,74.50
2018-04-29T22:54:53.186Z,74.90
2018-04-29T22:57:21.604Z,75.40
2018-04-29T22:59:49.174Z,75.30
2018-04-29T23:02:16.737Z,75.10
2018-04-29T23:04:44.481Z,75.10
2018-04-29T23:07:11.984Z,75.40
2018-04-29T23:09:39.564Z,75.20
2018-04-29T23:12:07.860Z,75.70
2018-04-29T23:14:35.504Z,75.70
2018-04-29T23:17:04.591Z,76.30
2018-04-29T23:19:32.901Z,76.40
2018-04-29T23:22:00.462Z,76.30
2018-04-29T23:24:28.050Z,76.50
2018-04-29T23:26:55.546Z,76.50
2018-04-29T23:29:23.095Z,76.50
2018-04-29T23:31:50.600Z,76.50
2018-04-29T23:34:18.175Z,76.40
2018-04-29T23:36:45.856Z,77.30
2018-04-29T23:39:15.167Z,77.00
2018-04-29T23:41:44.743Z,77.50
2018-04-29T23:44:14.300Z,77.50
2018-04-29T23:46:42.040Z,77.60
2018-04-29T23:49:09.560Z,77.60
2018-04-29T23:51:38.530Z,77.40
2018-04-29T23:54:06.036Z,77.60
2018-04-29T23:56:33.584Z,77.70
2018-04-29T23:59:01.089Z,77.90
